Time;durP1;ratioP1;P1;durP2;ratioP2;P2;SDS_P1;SDS_P2;PMS_P1;PMS_P2;Temp;Humidity;BMP_temperature;BMP_pressure;BME280_temperature;BME280_humidity;BME280_pressure;Samples;Min_cycle;Max_cycle;Signal;HPM_P1;HPM_P2
2023/06/27 00:01:04;;;;;;;6.13;2.27;;;;;;;25.71;48.63;100675.50;5070537;28;20321;-64
2023/06/27 00:03:31;;;;;;;5.00;2.63;;;;;;;25.71;49.30;100678.41;5092412;28;20400;-64
2023/06/27 00:06:00;;;;;;;3.90;1.97;;;;;;;25.69;48.90;100675.91;5069536;28;20550;-64
2023/06/27 00:08:27;;;;;;;5.83;2.50;;;;;;;25.69;49.05;100670.13;5071738;28;20417;-64
2023/06/27 00:10:53;;;;;;;3.87;2.00;;;;;;;25.70;49.60;100673.84;5045951;28;21013;-63
2023/06/27 00:13:20;;;;;;;4.10;1.93;;;;;;;25.70;49.36;100677.56;5091719;28;20426;-64
2023/06/27 00:15:46;;;;;;;3.87;2.17;;;;;;;25.69;49.06;100675.91;5088542;28;20186;-64
2023/06/27 00:18:11;;;;;;;6.00;1.77;;;;;;;25.69;49.05;100681.69;5071800;28;20469;-64
2023/06/27 00:20:37;;;;;;;3.60;1.90;;;;;;;25.70;49.06;100682.53;5092011;28;20159;-64
2023/06/27 00:23:24;;;;;;;7.57;1.80;;;;;;;25.70;49.45;100682.53;5072525;28;20491;-64
2023/06/27 00:25:49;;;;;;;4.10;2.13;;;;;;;25.69;49.13;100687.47;5072045;28;20170;-64
2023/06/27 00:28:15;;;;;;;5.23;1.77;;;;;;;25.69;49.70;100683.78;5083122;28;20448;-64
2023/06/27 00:30:40;;;;;;;4.13;1.90;;;;;;;25.69;49.59;100680.91;5050733;28;20214;-64
2023/06/27 00:33:09;;;;;;;6.03;2.23;;;;;;;25.70;49.78;100689.13;5068245;28;20160;-64
2023/06/27 00:35:35;;;;;;;4.17;1.93;;;;;;;25.69;49.42;100683.78;5068232;28;20910;-64
2023/06/27 00:38:03;;;;;;;4.77;1.80;;;;;;;25.68;49.88;100685.84;5088445;28;21214;-64
2023/06/27 00:40:29;;;;;;;4.40;2.23;;;;;;;25.69;49.86;100692.47;5061963;28;21057;-64
2023/06/27 00:42:54;;;;;;;3.50;1.60;;;;;;;25.69;49.45;100698.25;5082473;28;20424;-64
2023/06/27 00:45:22;;;;;;;4.70;2.03;;;;;;;25.68;49.81;100691.63;5072521;28;20175;-64
2023/06/27 00:47:48;;;;;;;7.10;2.27;;;;;;;25.69;49.85;100695.34;5073938;28;20170;-64
2023/06/27 00:50:13;;;;;;;3.63;1.70;;;;;;;25.68;49.30;100687.91;5078398;28;20476;-64
2023/06/27 00:52:38;;;;;;;2.93;1.60;;;;;;;25.68;49.33;100685.84;5052957;28;20178;-64
2023/06/27 00:55:04;;;;;;;3.83;1.80;;;;;;;25.67;49.90;100695.78;5052649;28;20167;-64
2023/06/27 00:57:31;;;;;;;4.17;2.00;;;;;;;25.67;49.89;100684.19;5063140;28;20190;-64
2023/06/27 00:59:56;;;;;;;3.80;1.83;;;;;;;25.67;49.86;100689.97;5073965;28;20563;-64
2023/06/27 01:02:23;;;;;;;3.50;1.63;;;;;;;25.66;49.80;100688.34;5071197;28;20440;-64
2023/06/27 01:04:50;;;;;;;3.40;1.70;;;;;;;25.66;49.46;100694.13;5073330;28;20216;-64
2023/06/27 01:07:23;;;;;;;3.77;1.80;;;;;;;25.67;49.88;100698.66;5085211;28;20463;-64
2023/06/27 01:09:54;;;;;;;4.83;2.20;;;;;;;25.67;49.76;100697.81;5070195;28;20463;-63
2023/06/27 01:12:34;;;;;;;3.57;1.67;;;;;;;25.66;50.39;100699.91;5086768;28;20483;-63
2023/06/27 01:14:59;;;;;;;3.47;1.47;;;;;;;25.65;49.74;100698.25;5072352;28;20412;-64
2023/06/27 01:17:24;;;;;;;5.00;2.30;;;;;;;25.66;50.11;100711.47;5088453;28;21105;-63
2023/06/27 01:19:52;;;;;;;3.93;1.43;;;;;;;25.66;50.27;100701.97;5052041;28;20584;-64
2023/06/27 01:22:19;;;;;;;2.77;1.60;;;;;;;25.66;49.98;100701.97;5068366;28;20163;-63
2023/06/27 01:24:45;;;;;;;2.93;1.60;;;;;;;25.65;50.42;100709.81;5062087;28;20455;-63
2023/06/27 01:27:13;;;;;;;3.93;1.77;;;;;;;25.65;50.64;100704.03;5088634;28;20927;-63
2023/06/27 01:29:41;;;;;;;4.57;1.90;;;;;;;25.65;49.80;100700.31;5086474;28;20183;-63
2023/06/27 01:32:18;;;;;;;3.80;2.20;;;;;;;25.65;50.20;100704.03;5059449;28;20812;-63
2023/06/27 01:34:53;;;;;;;4.30;1.80;;;;;;;25.64;50.30;100699.50;5081877;28;20837;-63
2023/06/27 01:37:28;;;;;;;3.30;1.53;;;;;;;25.62;49.76;100699.09;5088461;28;20427;-63
2023/06/27 01:39:55;;;;;;;4.10;1.90;;;;;;;25.63;49.66;100692.06;5058199;28;20440;-63
2023/06/27 01:42:23;;;;;;;5.40;2.00;;;;;;;25.63;49.91;100700.75;5079120;28;20502;-64
2023/06/27 01:44:48;;;;;;;3.60;1.77;;;;;;;25.63;49.81;100691.22;5068507;28;20438;-63
2023/06/27 01:47:14;;;;;;;5.87;2.00;;;;;;;25.62;49.80;100696.22;5071099;28;20455;-63
2023/06/27 01:49:40;;;;;;;4.50;2.10;;;;;;;25.61;50.10;100685.88;5089581;28;20269;-64
2023/06/27 01:52:06;;;;;;;5.10;1.83;;;;;;;25.62;49.74;100693.31;5057282;28;20191;-63
2023/06/27 01:54:32;;;;;;;2.90;1.60;;;;;;;25.60;50.39;100687.13;5075405;28;20174;-63
2023/06/27 01:56:57;;;;;;;3.67;2.00;;;;;;;25.61;50.11;100685.88;5085356;28;20926;-63
2023/06/27 01:59:23;;;;;;;5.27;2.13;;;;;;;25.61;50.33;100685.06;5069547;28;20179;-64
2023/06/27 02:01:48;;;;;;;3.47;1.47;;;;;;;25.60;50.02;100683.41;5069796;28;20171;-63
2023/06/27 02:04:13;;;;;;;4.63;2.37;;;;;;;25.61;50.35;100699.50;5052074;28;20190;-63
2023/06/27 02:06:39;;;;;;;3.20;1.93;;;;;;;25.59;50.67;100691.25;5077200;28;20213;-63
2023/06/27 02:09:04;;;;;;;5.93;2.13;;;;;;;25.60;50.34;100687.13;5089946;28;20166;-64
2023/06/27 02:11:30;;;;;;;3.90;1.70;;;;;;;25.61;50.35;100691.69;5090310;28;20206;-63
2023/06/27 02:13:55;;;;;;;5.20;1.90;;;;;;;25.59;50.38;100685.47;5090126;28;20186;-63
2023/06/27 02:16:21;;;;;;;3.20;1.90;;;;;;;25.60;50.45;100684.25;5085752;28;20186;-63
2023/06/27 02:18:46;;;;;;;4.77;1.93;;;;;;;25.60;50.62;100683.41;5089233;28;20174;-63
2023/06/27 02:21:12;;;;;;;3.77;1.67;;;;;;;25.61;50.03;100688.78;5070159;28;20621;-63
2023/06/27 02:23:37;;;;;;;4.53;2.03;;;;;;;25.59;50.36;100682.56;5087213;28;20198;-63
2023/06/27 02:26:03;;;;;;;5.00;2.03;;;;;;;25.58;50.75;100689.59;5078525;28;20673;-63
2023/06/27 02:28:29;;;;;;;4.57;1.67;;;;;;;25.59;50.84;100688.34;5069186;28;20186;-63
2023/06/27 02:30:54;;;;;;;3.70;1.87;;;;;;;25.59;50.92;100694.13;5074937;28;20465;-63
2023/06/27 02:33:20;;;;;;;4.60;1.90;;;;;;;25.58;50.47;100695.38;5067501;28;20181;-64
2023/06/27 02:35:45;;;;;;;3.23;1.57;;;;;;;25.59;50.80;100690.44;5052905;28;20182;-63
2023/06/27 02:38:11;;;;;;;3.30;1.63;;;;;;;25.58;50.58;100692.50;5069501;28;20237;-63
2023/06/27 02:40:36;;;;;;;3.50;1.80;;;;;;;25.58;50.65;100691.69;5069275;28;20190;-64
2023/06/27 02:43:02;;;;;;;4.27;1.67;;;;;;;25.58;50.56;100688.81;5081994;28;20190;-64
2023/06/27 02:45:27;;;;;;;3.20;1.53;;;;;;;25.58;50.87;100686.72;5089465;28;20210;-63
2023/06/27 02:47:52;;;;;;;3.50;1.77;;;;;;;25.58;51.31;100694.59;5085388;28;20216;-63
2023/06/27 02:50:18;;;;;;;4.20;1.90;;;;;;;25.57;50.51;100696.63;5068961;28;20491;-63
2023/06/27 02:52:43;;;;;;;4.70;1.60;;;;;;;25.57;50.67;100690.84;5051175;28;20557;-63
2023/06/27 02:55:09;;;;;;;6.67;1.80;;;;;;;25.58;50.57;100697.47;5050881;28;20241;-64
2023/06/27 02:57:34;;;;;;;4.50;1.97;;;;;;;25.56;50.71;100695.00;5071330;28;20236;-63
2023/06/27 03:00:00;;;;;;;4.00;2.00;;;;;;;25.56;50.64;100694.16;5071563;28;20215;-63
2023/06/27 03:02:25;;;;;;;6.10;2.00;;;;;;;25.56;50.93;100692.09;5075918;28;20602;-63
2023/06/27 03:04:50;;;;;;;4.70;1.90;;;;;;;25.56;50.83;100692.09;5085998;28;20193;-64
2023/06/27 03:07:16;;;;;;;5.20;1.87;;;;;;;25.55;50.77;100693.34;5086615;28;20202;-63
2023/06/27 03:09:41;;;;;;;5.17;2.00;;;;;;;25.56;50.69;100695.00;5088835;28;20231;-63
2023/06/27 03:12:07;;;;;;;3.20;1.90;;;;;;;25.55;50.61;100690.47;5081558;28;20654;-63
2023/06/27 03:14:33;;;;;;;4.20;1.80;;;;;;;25.55;51.00;100693.34;5049934;28;20159;-63
2023/06/27 03:16:58;;;;;;;4.47;2.00;;;;;;;25.55;51.22;100683.84;5070320;28;21230;-64
2023/06/27 03:19:24;;;;;;;3.33;1.70;;;;;;;25.54;51.12;100691.69;5076520;28;20175;-63
2023/06/27 03:21:49;;;;;;;5.67;2.03;;;;;;;25.54;51.13;100694.56;5086840;28;20166;-63
2023/06/27 03:24:15;;;;;;;3.53;1.60;;;;;;;25.54;51.22;100694.56;5086045;28;20173;-63
2023/06/27 03:26:40;;;;;;;4.50;2.47;;;;;;;25.54;50.92;100690.88;5069877;28;20713;-64
2023/06/27 03:29:05;;;;;;;2.93;1.80;;;;;;;25.53;50.74;100687.16;5065874;28;20190;-63
2023/06/27 03:31:31;;;;;;;3.60;1.90;;;;;;;25.54;51.15;100685.91;5068794;28;20199;-63
2023/06/27 03:33:57;;;;;;;4.97;1.87;;;;;;;25.53;51.45;100687.16;5049422;28;20179;-63
2023/06/27 03:36:24;;;;;;;3.30;1.60;;;;;;;25.53;51.36;100687.16;5068554;28;20182;-64
2023/06/27 03:38:51;;;;;;;6.27;2.27;;;;;;;25.53;51.09;100689.25;5079357;28;20202;-63
2023/06/27 03:41:16;;;;;;;3.53;1.57;;;;;;;25.52;51.13;100682.63;5086329;28;20467;-63
2023/06/27 03:43:42;;;;;;;3.30;1.90;;;;;;;25.52;51.50;100685.50;5083262;28;20416;-64
2023/06/27 03:46:09;;;;;;;2.87;1.63;;;;;;;25.52;51.17;100682.63;5086815;28;20877;-63
2023/06/27 03:48:35;;;;;;;3.43;1.60;;;;;;;25.53;51.46;100695.03;5072020;28;20210;-64
2023/06/27 03:51:00;;;;;;;5.50;1.83;;;;;;;25.51;51.05;100692.53;5067238;28;20457;-63
2023/06/27 03:53:26;;;;;;;4.60;1.90;;;;;;;25.51;50.89;100692.53;5075776;28;20189;-63
2023/06/27 03:55:51;;;;;;;6.13;2.20;;;;;;;25.52;51.11;100699.97;5077648;28;20163;-63
2023/06/27 03:58:17;;;;;;;4.40;1.67;;;;;;;25.50;51.29;100696.69;5064338;28;20170;-63
2023/06/27 04:00:42;;;;;;;3.03;1.80;;;;;;;25.51;51.24;100697.50;5075979;28;20215;-63
2023/06/27 04:03:08;;;;;;;3.27;1.90;;;;;;;25.50;51.64;100696.69;5049988;28;20277;-64
2023/06/27 04:05:33;;;;;;;3.00;1.80;;;;;;;25.50;51.50;100696.69;5036567;28;20179;-63
2023/06/27 04:07:59;;;;;;;4.73;1.80;;;;;;;25.48;51.59;100704.94;5070382;28;20202;-64
2023/06/27 04:10:25;;;;;;;3.57;1.80;;;;;;;25.46;50.76;100712.38;5064161;28;20203;-63
2023/06/27 04:12:50;;;;;;;8.33;1.93;;;;;;;25.46;51.97;100707.44;5058154;28;20867;-64
2023/06/27 04:15:16;;;;;;;6.03;2.40;;;;;;;25.70;55.00;100702.78;5081080;28;20264;-64
2023/06/27 04:17:41;;;;;;;6.13;3.13;;;;;;;25.76;55.47;100704.81;5077363;28;20666;-64
2023/06/27 04:20:07;;;;;;;8.87;3.77;;;;;;;25.64;53.62;100695.78;5068496;28;20183;-63
2023/06/27 04:22:32;;;;;;;8.23;3.37;;;;;;;25.58;55.29;100704.06;5074489;28;20312;-65
2023/06/27 04:24:58;;;;;;;9.20;3.03;;;;;;;25.57;54.03;100701.59;5075780;28;20431;-64
2023/06/27 04:27:23;;;;;;;8.20;2.90;;;;;;;25.52;53.81;100705.75;5064414;28;20175;-63
2023/06/27 04:29:49;;;;;;;8.33;2.77;;;;;;;25.47;53.07;100699.56;5073926;28;20903;-64
2023/06/27 04:32:14;;;;;;;7.73;2.87;;;;;;;25.49;52.30;100703.69;5051885;28;20221;-63
2023/06/27 04:34:39;;;;;;;8.87;2.87;;;;;;;25.53;51.67;100703.69;5072455;28;20183;-64
2023/06/27 04:37:05;;;;;;;6.80;2.67;;;;;;;25.52;51.73;100713.59;5078178;28;20291;-65
2023/06/27 04:39:31;;;;;;;5.13;2.60;;;;;;;25.60;52.28;100716.06;5067416;28;20341;-64
2023/06/27 04:41:59;;;;;;;7.07;2.67;;;;;;;25.65;51.95;100711.91;5076785;28;20182;-64
2023/06/27 04:44:24;;;;;;;10.03;2.80;;;;;;;25.65;50.78;100721.38;5072768;28;20507;-65
2023/06/27 04:46:50;;;;;;;7.83;2.70;;;;;;;25.61;50.85;100716.88;5077435;28;20519;-63
2023/06/27 04:49:15;;;;;;;7.70;2.97;;;;;;;25.57;50.56;100714.00;5061227;28;20186;-64
2023/06/27 04:51:41;;;;;;;6.40;2.50;;;;;;;25.57;50.77;100714.00;5072142;28;20206;-64
2023/06/27 04:54:06;;;;;;;8.33;3.13;;;;;;;25.58;51.09;100718.53;5069128;28;20171;-64
2023/06/27 04:56:33;;;;;;;5.03;2.40;;;;;;;25.51;50.72;100721.47;5083784;28;20705;-64
2023/06/27 04:58:59;;;;;;;7.83;2.57;;;;;;;25.48;51.35;100724.38;5071712;28;20171;-64
2023/06/27 05:01:24;;;;;;;7.13;2.40;;;;;;;25.46;51.86;100724.78;5080619;28;20476;-64
2023/06/27 05:03:50;;;;;;;5.80;2.53;;;;;;;25.50;51.14;100710.31;5085027;28;20179;-64
2023/06/27 05:06:15;;;;;;;5.73;2.20;;;;;;;25.43;50.01;100711.16;5069969;28;20891;-64
2023/06/27 05:08:41;;;;;;;8.97;2.60;;;;;;;25.37;49.08;100723.56;5069908;28;20178;-64
2023/06/27 05:11:06;;;;;;;6.30;2.17;;;;;;;25.38;48.80;100731.00;5079658;28;20530;-63
2023/06/27 05:13:32;;;;;;;8.03;2.17;;;;;;;25.30;48.28;100723.59;5070394;28;20171;-63
2023/06/27 05:15:57;;;;;;;11.30;2.60;;;;;;;25.33;48.20;100737.22;5084362;28;20174;-64
2023/06/27 05:18:23;;;;;;;6.93;2.13;;;;;;;25.30;48.18;100732.25;5088246;28;20189;-64
2023/06/27 05:20:48;;;;;;;6.60;2.30;;;;;;;25.25;48.40;100733.53;5071803;28;20613;-63
2023/06/27 05:23:14;;;;;;;6.57;2.30;;;;;;;25.21;48.70;100740.50;5086538;28;20224;-64
2023/06/27 05:25:39;;;;;;;5.70;2.90;;;;;;;25.15;50.01;100748.78;5069729;28;20178;-63
2023/06/27 05:28:05;;;;;;;7.03;2.77;;;;;;;25.22;51.24;100734.31;5080316;28;20182;-63
2023/06/27 05:30:30;;;;;;;7.27;2.90;;;;;;;25.28;50.53;100734.75;5075733;28;20607;-64
2023/06/27 05:32:56;;;;;;;7.43;2.73;;;;;;;25.32;50.66;100741.31;5089765;28;20221;-64
2023/06/27 05:35:22;;;;;;;6.90;2.20;;;;;;;25.36;50.82;100742.97;5070348;28;20179;-64
2023/06/27 05:37:47;;;;;;;13.17;2.80;;;;;;;25.39;50.36;100741.31;5072058;28;20179;-64
2023/06/27 05:40:13;;;;;;;10.00;2.83;;;;;;;25.40;50.48;100740.06;5052279;28;20289;-64
2023/06/27 05:42:39;;;;;;;11.40;2.40;;;;;;;25.42;50.30;100744.19;5081277;28;20555;-64
2023/06/27 05:45:05;;;;;;;5.43;2.50;;;;;;;25.43;50.63;100742.16;5088571;28;20287;-64
2023/06/27 05:47:30;;;;;;;3.50;2.03;;;;;;;25.42;50.97;100749.97;5090172;28;20277;-64
2023/06/27 05:49:56;;;;;;;6.30;2.10;;;;;;;25.43;50.92;100750.81;5085814;28;20487;-64
2023/06/27 05:52:22;;;;;;;3.83;1.93;;;;;;;25.43;51.39;100751.63;5071591;28;20182;-65
2023/06/27 05:54:48;;;;;;;4.43;2.03;;;;;;;25.44;51.11;100764.84;5078669;28;20198;-64
2023/06/27 05:57:13;;;;;;;5.17;2.40;;;;;;;25.43;51.03;100754.53;5070196;28;20405;-64
2023/06/27 05:59:39;;;;;;;7.53;2.70;;;;;;;25.42;51.03;100749.97;5050815;28;20297;-64
2023/06/27 06:02:04;;;;;;;3.37;2.00;;;;;;;25.44;51.39;100753.28;5069564;28;20159;-64
2023/06/27 06:04:30;;;;;;;9.23;2.60;;;;;;;25.43;51.09;100748.72;5080885;28;20232;-64
2023/06/27 06:06:55;;;;;;;9.13;2.83;;;;;;;25.42;51.30;100746.25;5068217;28;20462;-64
2023/06/27 06:09:21;;;;;;;5.67;1.93;;;;;;;25.42;51.21;100744.19;5073389;28;20209;-64
2023/06/27 06:11:46;;;;;;;6.60;2.10;;;;;;;25.45;51.18;100757.00;5067797;28;20198;-64
2023/06/27 06:14:12;;;;;;;4.67;2.20;;;;;;;25.46;51.19;100765.25;5051313;28;20183;-64
2023/06/27 06:16:37;;;;;;;5.13;2.30;;;;;;;25.44;51.40;100759.06;5059025;28;20205;-64
2023/06/27 06:19:03;;;;;;;4.30;2.20;;;;;;;25.43;51.09;100757.41;5079485;28;20182;-63
2023/06/27 06:21:29;;;;;;;4.00;2.00;;;;;;;25.44;51.48;100758.25;5070122;28;20171;-64
2023/06/27 06:23:54;;;;;;;3.87;2.10;;;;;;;25.45;51.45;100757.00;5076242;28;20158;-64
2023/06/27 06:26:20;;;;;;;4.30;2.10;;;;;;;25.43;51.70;100748.72;5073448;28;20785;-63
2023/06/27 06:28:46;;;;;;;5.90;2.37;;;;;;;25.43;51.44;100745.84;5069238;28;20179;-63
2023/06/27 06:31:11;;;;;;;4.20;2.20;;;;;;;25.43;51.53;100740.06;5074642;28;20202;-64
2023/06/27 06:33:40;;;;;;;3.63;2.10;;;;;;;25.42;51.57;100735.53;5089180;28;20174;-64
2023/06/27 06:36:06;;;;;;;4.00;1.93;;;;;;;25.42;51.25;100741.31;5089292;28;20154;-64
2023/06/27 06:38:32;;;;;;;4.10;2.10;;;;;;;25.43;51.56;100739.25;5066775;28;20433;-63
2023/06/27 06:40:57;;;;;;;6.83;2.67;;;;;;;25.42;51.31;100740.47;5069118;28;20410;-64
2023/06/27 06:43:25;;;;;;;6.87;2.27;;;;;;;25.41;51.57;100745.44;5086768;28;20179;-64
2023/06/27 06:45:54;;;;;;;4.37;2.00;;;;;;;25.42;51.53;100740.47;5069459;28;20206;-63
2023/06/27 06:48:19;;;;;;;5.17;2.50;;;;;;;25.42;51.82;100749.16;5069030;28;20417;-63
2023/06/27 06:50:46;;;;;;;6.03;2.57;;;;;;;25.42;51.36;100752.88;5069018;28;21330;-64
2023/06/27 06:53:11;;;;;;;4.30;2.30;;;;;;;25.44;51.64;100752.47;5068620;28;20163;-63
2023/06/27 06:55:36;;;;;;;4.90;2.50;;;;;;;25.43;51.38;100751.63;5075853;28;20467;-63
2023/06/27 06:58:03;;;;;;;6.43;2.50;;;;;;;25.43;51.35;100745.84;5088510;28;20223;-63
2023/06/27 07:00:29;;;;;;;3.90;2.13;;;;;;;25.43;51.22;100739.25;5087369;28;20220;-64
2023/06/27 07:02:55;;;;;;;4.20;2.30;;;;;;;25.40;51.91;100743.81;5084208;28;20440;-63
2023/06/27 07:05:20;;;;;;;8.43;2.57;;;;;;;25.41;51.23;100739.66;5086635;28;20178;-64
2023/06/27 07:07:46;;;;;;;5.53;2.50;;;;;;;25.42;51.65;100744.19;5086679;28;20224;-64
2023/06/27 07:10:11;;;;;;;4.03;2.03;;;;;;;25.42;51.80;100746.25;5068355;28;20194;-63
2023/06/27 07:12:36;;;;;;;6.93;2.50;;;;;;;25.41;51.84;100745.44;5081499;28;20186;-64
2023/06/27 07:15:02;;;;;;;3.33;1.63;;;;;;;25.41;52.00;100748.34;5069637;28;20174;-64
2023/06/27 07:17:27;;;;;;;3.47;2.30;;;;;;;25.41;51.83;100742.56;5083853;28;20182;-64
2023/06/27 07:19:53;;;;;;;5.63;2.70;;;;;;;25.40;51.73;100749.59;5070324;28;20234;-63
2023/06/27 07:22:18;;;;;;;5.00;2.13;;;;;;;25.40;51.21;100746.69;5088574;28;20908;-64
2023/06/27 07:24:44;;;;;;;6.40;2.33;;;;;;;25.41;51.50;100745.44;5088547;28;20596;-64
2023/06/27 07:27:09;;;;;;;5.17;2.40;;;;;;;25.41;51.35;100742.56;5084473;28;20177;-63
2023/06/27 07:29:35;;;;;;;6.73;2.70;;;;;;;25.41;51.17;100741.72;5088801;28;20544;-64
2023/06/27 07:32:01;;;;;;;8.43;2.20;;;;;;;25.40;51.16;100740.91;5083487;28;20241;-63
2023/06/27 07:34:26;;;;;;;8.30;2.33;;;;;;;25.42;51.56;100744.19;5068431;28;20936;-64
2023/06/27 07:36:52;;;;;;;4.97;2.20;;;;;;;25.41;51.63;100745.44;5086917;28;20287;-64
2023/06/27 07:39:17;;;;;;;3.80;1.93;;;;;;;25.42;51.67;100737.59;5072825;28;20278;-64
2023/06/27 07:41:43;;;;;;;3.77;2.00;;;;;;;25.40;51.37;100738.03;5072003;28;20179;-64
2023/06/27 07:44:08;;;;;;;4.63;2.23;;;;;;;25.40;51.44;100740.91;5066947;28;20205;-64
2023/06/27 07:46:34;;;;;;;4.13;2.20;;;;;;;25.38;51.39;100746.28;5066860;28;20174;-63
2023/06/27 07:49:00;;;;;;;3.63;1.80;;;;;;;25.37;51.49;100750.41;5088527;28;20174;-63
2023/06/27 07:51:26;;;;;;;3.53;2.10;;;;;;;25.38;51.41;100745.47;5087170;28;20632;-63
2023/06/27 07:53:51;;;;;;;4.80;2.50;;;;;;;25.39;51.42;100747.91;5073257;28;20806;-63
2023/06/27 07:56:17;;;;;;;3.63;1.83;;;;;;;25.38;51.46;100736.78;5070781;28;20483;-64
2023/06/27 07:58:44;;;;;;;4.27;2.10;;;;;;;25.39;51.66;100739.25;5055450;28;20190;-63
2023/06/27 08:01:10;;;;;;;5.67;2.60;;;;;;;25.39;51.62;100732.66;5072503;28;20231;-64
2023/06/27 08:03:35;;;;;;;4.13;1.90;;;;;;;25.38;51.49;100728.91;5088276;28;20531;-64
2023/06/27 08:06:05;;;;;;;7.40;2.40;;;;;;;25.38;51.51;100726.03;5090167;28;20255;-64
2023/06/27 08:08:30;;;;;;;4.40;2.30;;;;;;;25.38;51.27;100722.34;5089505;28;20451;-64
2023/06/27 08:10:56;;;;;;;3.70;2.00;;;;;;;25.38;51.35;100717.34;5079593;28;20476;-64
2023/06/27 08:13:24;;;;;;;4.77;2.17;;;;;;;25.38;51.60;100722.34;5087318;28;20186;-64
2023/06/27 08:15:50;;;;;;;4.60;2.60;;;;;;;25.38;51.37;100714.47;5087231;28;20183;-64
2023/06/27 08:18:15;;;;;;;5.93;2.33;;;;;;;25.38;51.54;100722.34;5091106;28;20987;-63
2023/06/27 08:20:41;;;;;;;3.63;2.10;;;;;;;25.38;51.50;100713.66;5091317;28;20174;-64
2023/06/27 08:23:06;;;;;;;2.77;1.73;;;;;;;25.38;51.35;100711.56;5091750;28;20550;-64
2023/06/27 08:25:32;;;;;;;5.03;2.30;;;;;;;25.38;51.42;100705.00;5087681;28;20174;-64
2023/06/27 08:27:57;;;;;;;5.40;2.50;;;;;;;25.38;51.52;100705.00;5072418;28;20170;-64
2023/06/27 08:30:23;;;;;;;4.73;1.80;;;;;;;25.37;51.37;100709.94;5070171;28;20560;-62
2023/06/27 08:32:48;;;;;;;4.60;2.10;;;;;;;25.38;51.11;100705.00;5069722;28;20194;-64
2023/06/27 08:35:14;;;;;;;5.63;2.20;;;;;;;25.37;51.27;100701.25;5070520;28;20183;-63
2023/06/27 08:37:39;;;;;;;5.10;2.20;;;;;;;25.38;51.46;100710.78;5072699;28;20206;-63
2023/06/27 08:40:05;;;;;;;6.43;2.77;;;;;;;25.38;51.34;100705.78;5070761;28;20171;-63
2023/06/27 08:42:32;;;;;;;5.00;2.47;;;;;;;25.37;51.63;100704.16;5080671;28;20285;-63
2023/06/27 08:45:00;;;;;;;4.47;2.10;;;;;;;25.38;51.54;100697.13;5090691;28;20412;-63
2023/06/27 08:47:27;;;;;;;4.90;2.33;;;;;;;25.37;51.61;100701.25;5075603;28;20468;-64
2023/06/27 08:50:13;;;;;;;4.50;2.17;;;;;;;25.36;51.45;100701.66;5052419;28;20413;-63
2023/06/27 08:52:55;;;;;;;5.03;2.43;;;;;;;25.37;51.18;100692.59;5069900;28;20484;-63
2023/06/27 08:55:41;;;;;;;4.83;2.80;;;;;;;25.35;51.26;100686.41;5053367;28;20436;-64
2023/06/27 08:58:11;;;;;;;3.43;1.87;;;;;;;25.35;51.05;100695.09;5068298;28;20429;-63
2023/06/27 09:00:36;;;;;;;8.70;2.53;;;;;;;25.35;50.95;100697.13;5054008;28;20921;-64
2023/06/27 09:03:03;;;;;;;4.73;2.20;;;;;;;25.34;50.76;100687.63;5051876;28;20467;-64
2023/06/27 09:05:29;;;;;;;4.93;2.40;;;;;;;25.35;51.47;100682.69;5066573;28;20185;-63
2023/06/27 09:07:54;;;;;;;5.07;2.10;;;;;;;25.34;51.02;100692.59;5084818;28;20788;-63
2023/06/27 09:10:20;;;;;;;5.60;1.83;;;;;;;25.33;50.78;100680.22;5089638;28;20462;-63
2023/06/27 09:12:45;;;;;;;5.30;2.40;;;;;;;25.33;50.79;100686.00;5050794;28;20170;-64
2023/06/27 09:15:11;;;;;;;4.17;2.07;;;;;;;25.34;50.70;100689.72;5054486;28;20186;-63
2023/06/27 09:17:37;;;;;;;6.10;2.13;;;;;;;25.33;50.98;100694.66;5070199;28;20189;-63
2023/06/27 09:20:05;;;;;;;5.80;2.90;;;;;;;25.33;50.55;100686.00;5073464;28;20217;-64
2023/06/27 09:22:31;;;;;;;4.20;2.30;;;;;;;25.34;50.87;100690.53;5068433;28;20963;-63
2023/06/27 09:25:23;;;;;;;3.23;2.13;;;;;;;25.33;50.58;100688.88;5070034;28;20436;-64
2023/06/27 09:27:49;;;;;;;3.93;2.10;;;;;;;25.33;50.86;100691.78;5082608;28;20198;-64
2023/06/27 09:30:14;;;;;;;4.77;2.47;;;;;;;25.34;50.54;100681.03;5069713;28;20970;-64
2023/06/27 09:32:59;;;;;;;3.90;2.30;;;;;;;25.34;50.84;100681.03;5074604;28;20178;-64
2023/06/27 09:35:26;;;;;;;3.40;2.00;;;;;;;25.34;50.87;100681.84;5090495;28;20185;-63
2023/06/27 09:37:51;;;;;;;5.43;2.57;;;;;;;25.35;50.70;100683.53;5082388;28;20437;-63
2023/06/27 09:40:18;;;;;;;3.73;2.30;;;;;;;25.34;50.24;100681.84;5052357;28;20418;-64
2023/06/27 09:42:53;;;;;;;5.90;2.60;;;;;;;25.35;51.10;100683.53;5077641;28;20181;-64
2023/06/27 09:45:19;;;;;;;5.17;2.40;;;;;;;25.33;50.35;100677.31;5068938;28;20463;-64
2023/06/27 09:47:51;;;;;;;4.90;2.40;;;;;;;25.33;50.27;100686.00;5071323;28;20440;-64
2023/06/27 09:50:17;;;;;;;4.47;2.00;;;;;;;25.32;51.12;100678.56;5069565;28;20464;-63
2023/06/27 09:52:52;;;;;;;4.30;2.33;;;;;;;25.33;50.54;100691.78;5086722;28;20419;-64
2023/06/27 09:55:18;;;;;;;5.73;2.70;;;;;;;25.34;50.53;100683.94;5086990;28;20408;-64
2023/06/27 09:57:46;;;;;;;10.53;2.47;;;;;;;25.33;50.59;100691.78;5060589;28;20462;-64
2023/06/27 10:00:13;;;;;;;6.30;2.50;;;;;;;25.33;50.26;100683.09;5067280;28;20322;-64
2023/06/27 10:02:39;;;;;;;5.27;2.33;;;;;;;25.33;50.36;100685.19;5035858;28;20839;-64
2023/06/27 10:05:04;;;;;;;4.70;2.87;;;;;;;25.34;49.93;100684.75;5067710;28;20436;-64
2023/06/27 10:07:33;;;;;;;4.83;2.50;;;;;;;25.34;50.44;100681.84;5049739;28;20191;-63
2023/06/27 10:09:58;;;;;;;4.53;2.00;;;;;;;25.34;50.38;100686.81;5050832;28;20175;-64
2023/06/27 10:12:24;;;;;;;4.60;2.50;;;;;;;25.34;50.24;100684.75;5064952;28;20497;-63
2023/06/27 10:14:50;;;;;;;3.60;2.20;;;;;;;25.34;50.49;100690.53;5088605;28;20656;-63
2023/06/27 10:17:18;;;;;;;7.87;2.43;;;;;;;25.34;49.97;100681.03;5087564;28;20416;-63
2023/06/27 10:19:44;;;;;;;4.33;2.57;;;;;;;25.33;50.18;100680.22;5069398;28;20258;-63
2023/06/27 10:22:09;;;;;;;6.23;2.67;;;;;;;25.34;49.98;100676.06;5056708;28;20765;-64
2023/06/27 10:24:38;;;;;;;4.30;2.33;;;;;;;25.33;50.38;100686.00;5070412;28;20174;-64
2023/06/27 10:27:07;;;;;;;5.53;2.50;;;;;;;25.33;49.85;100686.00;5088989;28;20185;-64
2023/06/27 10:29:32;;;;;;;4.47;2.60;;;;;;;25.33;50.31;100680.22;5070087;28;20834;-63
2023/06/27 10:31:57;;;;;;;5.47;2.67;;;;;;;25.33;50.05;100679.41;5072764;28;20465;-64
2023/06/27 10:34:29;;;;;;;5.77;2.20;;;;;;;25.33;50.00;100680.22;5050556;28;20723;-64
2023/06/27 10:36:54;;;;;;;6.50;2.90;;;;;;;25.34;49.66;100681.84;5081032;28;20194;-63
2023/06/27 10:39:36;;;;;;;8.97;2.63;;;;;;;25.35;49.80;100682.69;5053853;28;20465;-63
2023/06/27 10:42:01;;;;;;;4.70;2.40;;;;;;;25.35;50.20;100682.69;5072990;28;20227;-63
2023/06/27 10:44:27;;;;;;;3.67;2.50;;;;;;;25.33;49.61;100677.31;5088511;28;20812;-64
2023/06/27 10:47:24;;;;;;;6.77;2.47;;;;;;;25.34;49.90;100676.06;5070111;28;20163;-63
2023/06/27 10:49:50;;;;;;;4.20;2.47;;;;;;;25.34;49.83;100681.03;5052548;28;20758;-64
2023/06/27 10:52:22;;;;;;;8.90;2.93;;;;;;;25.33;49.88;100679.41;5038210;28;20479;-63
2023/06/27 10:55:18;;;;;;;3.30;2.13;;;;;;;25.34;49.67;100686.81;5050554;28;20147;-63
2023/06/27 10:57:50;;;;;;;4.30;2.20;;;;;;;25.33;50.13;100686.00;5071203;28;20478;-63
2023/06/27 11:00:26;;;;;;;3.27;2.03;;;;;;;25.33;50.02;100691.78;5076883;28;21033;-63
2023/06/27 11:02:54;;;;;;;6.63;2.60;;;;;;;25.32;50.03;100684.34;5083073;28;20515;-64
2023/06/27 11:05:20;;;;;;;6.57;3.20;;;;;;;25.34;50.09;100684.75;5069400;28;20445;-63
2023/06/27 11:07:58;;;;;;;4.10;2.17;;;;;;;25.34;49.87;100684.75;5051406;28;20533;-63
2023/06/27 11:10:29;;;;;;;6.50;2.67;;;;;;;25.34;49.90;100678.16;5063757;28;20201;-63
2023/06/27 11:13:21;;;;;;;4.40;2.50;;;;;;;25.34;49.67;100670.28;5080651;28;20417;-62
2023/06/27 11:15:47;;;;;;;3.77;2.53;;;;;;;25.36;49.46;100672.75;5088494;28;20413;-63
2023/06/27 11:18:15;;;;;;;4.20;2.37;;;;;;;25.36;49.64;100669.88;5081745;28;20962;-63
2023/06/27 11:20:42;;;;;;;3.67;2.30;;;;;;;25.35;50.01;100669.06;5088253;28;20222;-64
2023/06/27 11:23:07;;;;;;;5.00;2.73;;;;;;;25.36;49.87;100666.97;5087399;28;20424;-63